sensor_id;sensor_type;location;lat;lon;timestamp;pressure;altitude;pressure_sealevel;temperature;humidity
63447;BME280;49577;49.872;6.190;2023-03-05T00:01:06;99961.90;;;3.99;74.87
63447;BME280;49577;49.872;6.190;2023-03-05T00:03:32;99958.85;;;3.97;74.92
63447;BME280;49577;49.872;6.190;2023-03-05T00:05:58;99957.98;;;3.98;74.94
63447;BME280;49577;49.872;6.190;2023-03-05T00:08:23;99953.98;;;3.98;75.03
63447;BME280;49577;49.872;6.190;2023-03-05T00:10:59;99951.88;;;3.99;75.08
63447;BME280;49577;49.872;6.190;2023-03-05T00:13:25;99949.11;;;3.99;75.01
63447;BME280;49577;49.872;6.190;2023-03-05T00:15:50;99948.30;;;3.97;75.10
63447;BME280;49577;49.872;6.190;2023-03-05T00:18:16;99953.24;;;3.94;75.23
63447;BME280;49577;49.872;6.190;2023-03-05T00:20:41;99951.61;;;3.90;75.17
63447;BME280;49577;49.872;6.190;2023-03-05T00:23:07;99956.15;;;3.89;75.35
63447;BME280;49577;49.872;6.190;2023-03-05T00:25:34;99957.74;;;3.88;75.35
63447;BME280;49577;49.872;6.190;2023-03-05T00:28:00;99956.00;;;3.88;75.47
63447;BME280;49577;49.872;6.190;2023-03-05T00:30:25;99956.17;;;3.88;75.55
63447;BME280;49577;49.872;6.190;2023-03-05T00:32:50;99953.75;;;3.89;75.53
63447;BME280;49577;49.872;6.190;2023-03-05T00:35:15;99954.59;;;3.90;75.54
63447;BME280;49577;49.872;6.190;2023-03-05T00:37:41;99955.72;;;3.87;75.51
63447;BME280;49577;49.872;6.190;2023-03-05T00:40:07;99953.73;;;3.84;75.60
63447;BME280;49577;49.872;6.190;2023-03-05T00:42:33;99951.00;;;3.82;75.74
63447;BME280;49577;49.872;6.190;2023-03-05T00:45:06;99947.90;;;3.82;75.87
63447;BME280;49577;49.872;6.190;2023-03-05T00:47:31;99944.65;;;3.81;75.82
63447;BME280;49577;49.872;6.190;2023-03-05T00:49:57;99941.61;;;3.78;75.70
63447;BME280;49577;49.872;6.190;2023-03-05T00:52:22;99938.09;;;3.74;75.92
63447;BME280;49577;49.872;6.190;2023-03-05T00:54:48;99935.34;;;3.73;76.18
63447;BME280;49577;49.872;6.190;2023-03-05T00:57:13;99933.77;;;3.74;76.09
63447;BME280;49577;49.872;6.190;2023-03-05T00:59:38;99935.64;;;3.76;76.11
63447;BME280;49577;49.872;6.190;2023-03-05T01:02:04;99933.13;;;3.78;76.13
63447;BME280;49577;49.872;6.190;2023-03-05T01:04:29;99929.52;;;3.78;75.97
63447;BME280;49577;49.872;6.190;2023-03-05T01:06:55;99923.74;;;3.75;75.91
63447;BME280;49577;49.872;6.190;2023-03-05T01:09:20;99922.13;;;3.71;76.00
63447;BME280;49577;49.872;6.190;2023-03-05T01:11:46;99921.33;;;3.69;76.17
63447;BME280;49577;49.872;6.190;2023-03-05T01:14:12;99922.62;;;3.66;76.18
63447;BME280;49577;49.872;6.190;2023-03-05T01:16:37;99921.13;;;3.64;76.31
63447;BME280;49577;49.872;6.190;2023-03-05T01:19:03;99920.11;;;3.63;76.44
63447;BME280;49577;49.872;6.190;2023-03-05T01:21:28;99917.54;;;3.63;76.37
63447;BME280;49577;49.872;6.190;2023-03-05T01:23:53;99913.25;;;3.62;76.41
63447;BME280;49577;49.872;6.190;2023-03-05T01:26:19;99914.33;;;3.60;76.42
63447;BME280;49577;49.872;6.190;2023-03-05T01:28:44;99914.35;;;3.59;76.49
63447;BME280;49577;49.872;6.190;2023-03-05T01:31:10;99910.46;;;3.56;76.43
63447;BME280;49577;49.872;6.190;2023-03-05T01:33:36;99904.86;;;3.53;76.53
63447;BME280;49577;49.872;6.190;2023-03-05T01:36:01;99902.52;;;3.50;76.69
63447;BME280;49577;49.872;6.190;2023-03-05T01:38:30;99900.86;;;3.49;76.88
63447;BME280;49577;49.872;6.190;2023-03-05T01:40:55;99897.84;;;3.51;77.01
63447;BME280;49577;49.872;6.190;2023-03-05T01:43:26;99894.14;;;3.54;77.02
63447;BME280;49577;49.872;6.190;2023-03-05T01:46:27;99889.75;;;3.56;76.90
63447;BME280;49577;49.872;6.190;2023-03-05T01:51:32;99889.41;;;3.50;76.73
63447;BME280;49577;49.872;6.190;2023-03-05T01:53:59;99887.63;;;3.46;77.01
63447;BME280;49577;49.872;6.190;2023-03-05T01:56:27;99879.70;;;3.46;77.18
63447;BME280;49577;49.872;6.190;2023-03-05T01:58:54;99875.32;;;3.47;77.21
63447;BME280;49577;49.872;6.190;2023-03-05T02:01:29;99873.67;;;3.50;77.20
63447;BME280;49577;49.872;6.190;2023-03-05T02:03:54;99875.02;;;3.51;76.95
63447;BME280;49577;49.872;6.190;2023-03-05T02:06:20;99870.98;;;3.49;76.99
63447;BME280;49577;49.872;6.190;2023-03-05T02:08:45;99863.63;;;3.46;77.15
63447;BME280;49577;49.872;6.190;2023-03-05T02:11:10;99859.50;;;3.46;77.36
63447;BME280;49577;49.872;6.190;2023-03-05T02:13:36;99858.73;;;3.47;77.34
63447;BME280;49577;49.872;6.190;2023-03-05T02:16:05;99852.20;;;3.47;77.28
63447;BME280;49577;49.872;6.190;2023-03-05T02:18:31;99852.22;;;3.46;77.37
63447;BME280;49577;49.872;6.190;2023-03-05T02:23:27;99850.70;;;3.45;77.38
63447;BME280;49577;49.872;6.190;2023-03-05T02:25:53;99848.95;;;3.46;77.40
63447;BME280;49577;49.872;6.190;2023-03-05T02:28:37;99849.48;;;3.45;77.33
63447;BME280;49577;49.872;6.190;2023-03-05T02:31:12;99848.19;;;3.48;77.35
63447;BME280;49577;49.872;6.190;2023-03-05T02:33:38;99848.36;;;3.48;77.32
63447;BME280;49577;49.872;6.190;2023-03-05T02:36:03;99845.81;;;3.47;77.19
63447;BME280;49577;49.872;6.190;2023-03-05T02:38:29;99838.43;;;3.45;77.31
63447;BME280;49577;49.872;6.190;2023-03-05T02:40:54;99841.87;;;3.46;77.38
63447;BME280;49577;49.872;6.190;2023-03-05T02:43:19;99836.86;;;3.46;77.43
63447;BME280;49577;49.872;6.190;2023-03-05T02:45:45;99837.50;;;3.47;77.42
63447;BME280;49577;49.872;6.190;2023-03-05T02:48:10;99838.33;;;3.49;77.45
63447;BME280;49577;49.872;6.190;2023-03-05T02:50:36;99838.83;;;3.49;77.51
63447;BME280;49577;49.872;6.190;2023-03-05T02:53:04;99832.94;;;3.50;77.52
63447;BME280;49577;49.872;6.190;2023-03-05T02:55:30;99831.61;;;3.48;77.26
63447;BME280;49577;49.872;6.190;2023-03-05T02:57:55;99826.02;;;3.45;77.35
63447;BME280;49577;49.872;6.190;2023-03-05T03:00:20;99824.97;;;3.45;77.47
63447;BME280;49577;49.872;6.190;2023-03-05T03:02:46;99825.27;;;3.46;77.51
63447;BME280;49577;49.872;6.190;2023-03-05T03:05:11;99822.06;;;3.44;77.34
63447;BME280;49577;49.872;6.190;2023-03-05T03:07:36;99822.77;;;3.44;77.47
63447;BME280;49577;49.872;6.190;2023-03-05T03:10:03;99818.75;;;3.45;77.50
63447;BME280;49577;49.872;6.190;2023-03-05T03:12:29;99816.67;;;3.46;77.33
63447;BME280;49577;49.872;6.190;2023-03-05T03:14:54;99811.08;;;3.41;77.15
63447;BME280;49577;49.872;6.190;2023-03-05T03:17:20;99812.35;;;3.34;77.21
63447;BME280;49577;49.872;6.190;2023-03-05T03:19:45;99811.44;;;3.29;77.49
63447;BME280;49577;49.872;6.190;2023-03-05T03:22:12;99806.62;;;3.29;77.76
63447;BME280;49577;49.872;6.190;2023-03-05T03:24:39;99803.02;;;3.28;77.72
63447;BME280;49577;49.872;6.190;2023-03-05T03:27:05;99801.80;;;3.28;77.69
63447;BME280;49577;49.872;6.190;2023-03-05T03:29:31;99802.47;;;3.29;77.41
63447;BME280;49577;49.872;6.190;2023-03-05T03:31:56;99800.80;;;3.27;77.43
63447;BME280;49577;49.872;6.190;2023-03-05T03:34:22;99800.48;;;3.26;77.55
63447;BME280;49577;49.872;6.190;2023-03-05T03:36:49;99801.49;;;3.27;77.69
63447;BME280;49577;49.872;6.190;2023-03-05T03:39:14;99798.83;;;3.30;77.70
63447;BME280;49577;49.872;6.190;2023-03-05T03:41:46;99799.09;;;3.33;77.50
63447;BME280;49577;49.872;6.190;2023-03-05T03:44:12;99796.73;;;3.31;77.18
63447;BME280;49577;49.872;6.190;2023-03-05T03:46:39;99796.74;;;3.30;77.47
63447;BME280;49577;49.872;6.190;2023-03-05T03:49:05;99795.20;;;3.30;77.54
63447;BME280;49577;49.872;6.190;2023-03-05T03:51:32;99794.86;;;3.30;77.52
63447;BME280;49577;49.872;6.190;2023-03-05T03:53:58;99794.19;;;3.29;77.58
63447;BME280;49577;49.872;6.190;2023-03-05T03:56:24;99792.63;;;3.29;77.65
63447;BME280;49577;49.872;6.190;2023-03-05T03:58:50;99789.77;;;3.27;77.55
63447;BME280;49577;49.872;6.190;2023-03-05T04:01:16;99793.63;;;3.25;77.63
63447;BME280;49577;49.872;6.190;2023-03-05T04:03:42;99791.88;;;3.25;77.65
63447;BME280;49577;49.872;6.190;2023-03-05T04:06:07;99784.63;;;3.25;77.65
63447;BME280;49577;49.872;6.190;2023-03-05T04:08:32;99790.45;;;3.27;77.87
63447;BME280;49577;49.872;6.190;2023-03-05T04:10:59;99781.61;;;3.28;77.83
63447;BME280;49577;49.872;6.190;2023-03-05T04:13:25;99781.26;;;3.28;77.83
63447;BME280;49577;49.872;6.190;2023-03-05T04:15:50;99778.29;;;3.29;77.74
63447;BME280;49577;49.872;6.190;2023-03-05T04:18:15;99777.06;;;3.31;77.60
63447;BME280;49577;49.872;6.190;2023-03-05T04:20:41;99774.68;;;3.29;77.28
63447;BME280;49577;49.872;6.190;2023-03-05T04:23:06;99772.84;;;3.27;77.55
63447;BME280;49577;49.872;6.190;2023-03-05T04:25:31;99771.33;;;3.26;77.61
63447;BME280;49577;49.872;6.190;2023-03-05T04:27:57;99764.08;;;3.25;77.64
63447;BME280;49577;49.872;6.190;2023-03-05T04:30:22;99764.30;;;3.24;77.47
63447;BME280;49577;49.872;6.190;2023-03-05T04:32:47;99761.23;;;3.22;77.42
63447;BME280;49577;49.872;6.190;2023-03-05T04:35:12;99759.59;;;3.20;77.36
63447;BME280;49577;49.872;6.190;2023-03-05T04:37:38;99755.54;;;3.17;77.60
63447;BME280;49577;49.872;6.190;2023-03-05T04:40:03;99753.80;;;3.18;77.63
63447;BME280;49577;49.872;6.190;2023-03-05T04:42:29;99751.16;;;3.19;77.70
63447;BME280;49577;49.872;6.190;2023-03-05T04:44:54;99748.60;;;3.18;77.55
63447;BME280;49577;49.872;6.190;2023-03-05T04:47:20;99745.95;;;3.14;77.58
63447;BME280;49577;49.872;6.190;2023-03-05T04:49:45;99739.62;;;3.13;77.98
63447;BME280;49577;49.872;6.190;2023-03-05T04:52:11;99739.26;;;3.13;77.96
63447;BME280;49577;49.872;6.190;2023-03-05T04:54:37;99739.55;;;3.15;77.88
63447;BME280;49577;49.872;6.190;2023-03-05T04:57:03;99733.29;;;3.16;77.78
63447;BME280;49577;49.872;6.190;2023-03-05T04:59:29;99734.48;;;3.17;77.62
63447;BME280;49577;49.872;6.190;2023-03-05T05:01:54;99732.17;;;3.19;77.55
63447;BME280;49577;49.872;6.190;2023-03-05T05:04:20;99732.71;;;3.18;77.36
63447;BME280;49577;49.872;6.190;2023-03-05T05:06:45;99728.35;;;3.14;77.14
63447;BME280;49577;49.872;6.190;2023-03-05T05:09:10;99727.67;;;3.08;77.17
63447;BME280;49577;49.872;6.190;2023-03-05T05:11:36;99724.16;;;3.04;77.19
63447;BME280;49577;49.872;6.190;2023-03-05T05:14:01;99721.80;;;3.02;77.14
63447;BME280;49577;49.872;6.190;2023-03-05T05:16:26;99723.54;;;3.02;77.46
63447;BME280;49577;49.872;6.190;2023-03-05T05:18:51;99719.70;;;3.03;77.60
63447;BME280;49577;49.872;6.190;2023-03-05T05:21:18;99717.88;;;3.07;77.68
63447;BME280;49577;49.872;6.190;2023-03-05T05:23:44;99715.20;;;3.10;77.46
63447;BME280;49577;49.872;6.190;2023-03-05T05:26:10;99711.70;;;3.11;77.42
63447;BME280;49577;49.872;6.190;2023-03-05T05:28:38;99709.45;;;3.12;77.20
63447;BME280;49577;49.872;6.190;2023-03-05T05:31:07;99708.73;;;3.12;76.87
63447;BME280;49577;49.872;6.190;2023-03-05T05:33:33;99705.79;;;3.12;76.76
63447;BME280;49577;49.872;6.190;2023-03-05T05:35:58;99703.20;;;3.13;76.71
63447;BME280;49577;49.872;6.190;2023-03-05T05:38:25;99702.49;;;3.13;76.71
63447;BME280;49577;49.872;6.190;2023-03-05T05:40:50;99699.57;;;3.13;76.55
63447;BME280;49577;49.872;6.190;2023-03-05T05:43:16;99698.90;;;3.12;76.31
63447;BME280;49577;49.872;6.190;2023-03-05T05:45:41;99699.45;;;3.11;76.13
63447;BME280;49577;49.872;6.190;2023-03-05T05:48:07;99701.34;;;3.11;76.10
63447;BME280;49577;49.872;6.190;2023-03-05T05:50:32;99700.82;;;3.11;76.06
63447;BME280;49577;49.872;6.190;2023-03-05T05:52:57;99697.50;;;3.13;76.22
63447;BME280;49577;49.872;6.190;2023-03-05T05:55:22;99700.71;;;3.15;76.32
63447;BME280;49577;49.872;6.190;2023-03-05T05:57:48;99700.13;;;3.17;76.26
63447;BME280;49577;49.872;6.190;2023-03-05T06:00:14;99703.89;;;3.18;76.31
63447;BME280;49577;49.872;6.190;2023-03-05T06:02:41;99707.16;;;3.18;76.24
63447;BME280;49577;49.872;6.190;2023-03-05T06:05:09;99705.11;;;3.18;76.28
63447;BME280;49577;49.872;6.190;2023-03-05T06:07:35;99700.30;;;3.17;76.26
63447;BME280;49577;49.872;6.190;2023-03-05T06:10:01;99695.07;;;3.13;76.11
63447;BME280;49577;49.872;6.190;2023-03-05T06:12:27;99697.20;;;3.11;76.06
63447;BME280;49577;49.872;6.190;2023-03-05T06:14:52;99693.45;;;3.10;76.07
63447;BME280;49577;49.872;6.190;2023-03-05T06:17:18;99698.95;;;3.11;76.18
63447;BME280;49577;49.872;6.190;2023-03-05T06:19:43;99698.75;;;3.11;76.30
63447;BME280;49577;49.872;6.190;2023-03-05T06:22:08;99700.55;;;3.09;76.37
63447;BME280;49577;49.872;6.190;2023-03-05T06:24:34;99699.60;;;3.06;76.32
63447;BME280;49577;49.872;6.190;2023-03-05T06:26:59;99700.31;;;3.06;76.58
63447;BME280;49577;49.872;6.190;2023-03-05T06:29:24;99698.05;;;3.06;76.51
63447;BME280;49577;49.872;6.190;2023-03-05T06:31:50;99694.84;;;3.04;76.46
63447;BME280;49577;49.872;6.190;2023-03-05T06:34:15;99699.52;;;3.03;76.57
63447;BME280;49577;49.872;6.190;2023-03-05T06:36:40;99696.15;;;3.01;76.66
63447;BME280;49577;49.872;6.190;2023-03-05T06:39:08;99693.95;;;2.99;76.69
63447;BME280;49577;49.872;6.190;2023-03-05T06:41:33;99690.89;;;2.97;76.88
63447;BME280;49577;49.872;6.190;2023-03-05T06:44:00;99692.17;;;2.95;76.94
63447;BME280;49577;49.872;6.190;2023-03-05T06:46:31;99689.44;;;2.94;77.17
63447;BME280;49577;49.872;6.190;2023-03-05T06:48:59;99690.48;;;2.93;77.26
63447;BME280;49577;49.872;6.190;2023-03-05T06:51:30;99693.24;;;2.94;77.29
63447;BME280;49577;49.872;6.190;2023-03-05T06:53:58;99695.48;;;2.94;77.39
63447;BME280;49577;49.872;6.190;2023-03-05T06:56:24;99697.88;;;2.94;77.41
63447;BME280;49577;49.872;6.190;2023-03-05T06:58:50;99699.10;;;2.94;77.57
63447;BME280;49577;49.872;6.190;2023-03-05T07:01:16;99696.67;;;2.94;77.61
63447;BME280;49577;49.872;6.190;2023-03-05T07:03:42;99695.98;;;2.95;77.67
63447;BME280;49577;49.872;6.190;2023-03-05T07:06:10;99696.98;;;3.01;77.96
63447;BME280;49577;49.872;6.190;2023-03-05T07:08:36;99692.90;;;3.11;77.91
63447;BME280;49577;49.872;6.190;2023-03-05T07:11:02;99691.16;;;3.17;77.56
63447;BME280;49577;49.872;6.190;2023-03-05T07:13:28;99691.23;;;3.19;77.41
63447;BME280;49577;49.872;6.190;2023-03-05T07:15:54;99691.71;;;3.21;77.29
63447;BME280;49577;49.872;6.190;2023-03-05T07:18:20;99691.02;;;3.20;77.15
63447;BME280;49577;49.872;6.190;2023-03-05T07:20:45;99691.06;;;3.19;77.17
63447;BME280;49577;49.872;6.190;2023-03-05T07:23:11;99685.33;;;3.20;77.39
63447;BME280;49577;49.872;6.190;2023-03-05T07:25:37;99686.39;;;3.26;77.59
63447;BME280;49577;49.872;6.190;2023-03-05T07:28:03;99686.84;;;3.33;77.45
63447;BME280;49577;49.872;6.190;2023-03-05T07:30:30;99685.17;;;3.37;77.03
63447;BME280;49577;49.872;6.190;2023-03-05T07:32:55;99685.80;;;3.39;76.83
63447;BME280;49577;49.872;6.190;2023-03-05T07:35:20;99689.58;;;3.45;77.36
63447;BME280;49577;49.872;6.190;2023-03-05T07:37:46;99686.68;;;3.54;77.40
63447;BME280;49577;49.872;6.190;2023-03-05T07:40:11;99682.48;;;3.61;77.13
63447;BME280;49577;49.872;6.190;2023-03-05T07:42:36;99681.95;;;3.67;76.92
63447;BME280;49577;49.872;6.190;2023-03-05T07:45:02;99679.85;;;3.72;76.70
63447;BME280;49577;49.872;6.190;2023-03-05T07:47:27;99675.89;;;3.77;76.58
63447;BME280;49577;49.872;6.190;2023-03-05T07:49:53;99678.95;;;3.84;76.11
63447;BME280;49577;49.872;6.190;2023-03-05T07:52:18;99674.50;;;3.88;75.95
63447;BME280;49577;49.872;6.190;2023-03-05T07:54:44;99676.23;;;3.93;75.86
63447;BME280;49577;49.872;6.190;2023-03-05T07:57:10;99671.56;;;3.93;75.84
63447;BME280;49577;49.872;6.190;2023-03-05T07:59:37;99672.42;;;3.93;75.93
63447;BME280;49577;49.872;6.190;2023-03-05T08:02:03;99671.45;;;3.96;75.69
63447;BME280;49577;49.872;6.190;2023-03-05T08:04:28;99670.77;;;4.01;75.24
63447;BME280;49577;49.872;6.190;2023-03-05T08:06:59;99672.39;;;4.04;75.19
63447;BME280;49577;49.872;6.190;2023-03-05T08:09:24;99672.86;;;4.10;75.39
63447;BME280;49577;49.872;6.190;2023-03-05T08:11:50;99671.94;;;4.16;75.01
63447;BME280;49577;49.872;6.190;2023-03-05T08:14:15;99672.73;;;4.23;74.41
63447;BME280;49577;49.872;6.190;2023-03-05T08:16:40;99671.61;;;4.30;73.75
63447;BME280;49577;49.872;6.190;2023-03-05T08:19:06;99671.92;;;4.37;73.37
63447;BME280;49577;49.872;6.190;2023-03-05T08:21:33;99670.71;;;4.41;72.65
63447;BME280;49577;49.872;6.190;2023-03-05T08:24:01;99669.13;;;4.47;72.35
63447;BME280;49577;49.872;6.190;2023-03-05T08:26:29;99667.35;;;4.53;72.01
63447;BME280;49577;49.872;6.190;2023-03-05T08:28:55;99669.71;;;4.59;71.71
63447;BME280;49577;49.872;6.190;2023-03-05T08:31:23;99672.87;;;4.62;71.02
63447;BME280;49577;49.872;6.190;2023-03-05T08:33:50;99669.36;;;4.64;70.42
63447;BME280;49577;49.872;6.190;2023-03-05T08:36:16;99668.55;;;4.67;70.35
63447;BME280;49577;49.872;6.190;2023-03-05T08:38:41;99667.04;;;4.70;70.07
63447;BME280;49577;49.872;6.190;2023-03-05T08:41:08;99665.72;;;4.73;69.84
63447;BME280;49577;49.872;6.190;2023-03-05T08:43:34;99660.13;;;4.79;69.63
63447;BME280;49577;49.872;6.190;2023-03-05T08:45:59;99661.48;;;4.84;69.54
63447;BME280;49577;49.872;6.190;2023-03-05T08:48:25;99662.41;;;4.92;69.27
63447;BME280;49577;49.872;6.190;2023-03-05T08:50:51;99661.48;;;4.98;68.82
63447;BME280;49577;49.872;6.190;2023-03-05T08:53:17;99659.17;;;5.04;68.52
63447;BME280;49577;49.872;6.190;2023-03-05T08:55:42;99654.02;;;5.07;67.95
63447;BME280;49577;49.872;6.190;2023-03-05T08:58:07;99648.78;;;5.08;67.50
63447;BME280;49577;49.872;6.190;2023-03-05T09:00:33;99648.55;;;5.10;67.12
63447;BME280;49577;49.872;6.190;2023-03-05T09:02:58;99643.92;;;5.13;67.05
63447;BME280;49577;49.872;6.190;2023-03-05T09:05:23;99641.66;;;5.18;66.60
63447;BME280;49577;49.872;6.190;2023-03-05T09:07:49;99639.55;;;5.19;66.21
63447;BME280;49577;49.872;6.190;2023-03-05T09:10:14;99641.95;;;5.23;66.35
63447;BME280;49577;49.872;6.190;2023-03-05T09:12:40;99640.81;;;5.30;66.10
63447;BME280;49577;49.872;6.190;2023-03-05T09:15:07;99638.00;;;5.35;65.79
63447;BME280;49577;49.872;6.190;2023-03-05T09:17:36;99637.88;;;5.39;65.41
63447;BME280;49577;49.872;6.190;2023-03-05T09:20:04;99636.52;;;5.42;65.07
63447;BME280;49577;49.872;6.190;2023-03-05T09:22:30;99634.15;;;5.45;65.07
63447;BME280;49577;49.872;6.190;2023-03-05T09:24:55;99630.14;;;5.49;64.90
63447;BME280;49577;49.872;6.190;2023-03-05T09:27:21;99627.06;;;5.53;64.43
63447;BME280;49577;49.872;6.190;2023-03-05T09:29:46;99627.56;;;5.61;63.99
63447;BME280;49577;49.872;6.190;2023-03-05T09:32:12;99620.35;;;5.72;63.78
63447;BME280;49577;49.872;6.190;2023-03-05T09:34:37;99616.20;;;5.84;63.14
63447;BME280;49577;49.872;6.190;2023-03-05T09:37:03;99615.68;;;5.93;62.69
63447;BME280;49577;49.872;6.190;2023-03-05T09:39:28;99613.21;;;5.98;62.10
63447;BME280;49577;49.872;6.190;2023-03-05T09:45:15;99615.08;;;6.26;61.49
63447;BME280;49577;49.872;6.190;2023-03-05T09:47:51;99614.49;;;6.39;60.31
63447;BME280;49577;49.872;6.190;2023-03-05T09:50:39;99614.83;;;6.47;59.95
63447;BME280;49577;49.872;6.190;2023-03-05T09:53:24;99608.73;;;6.55;59.14
63447;BME280;49577;49.872;6.190;2023-03-05T09:55:58;99606.30;;;6.62;59.00
63447;BME280;49577;49.872;6.190;2023-03-05T10:01:39;99602.54;;;6.72;57.83
63447;BME280;49577;49.872;6.190;2023-03-05T10:04:41;99601.07;;;6.74;57.55
63447;BME280;49577;49.872;6.190;2023-03-05T10:07:16;99597.21;;;6.78;56.16
63447;BME280;49577;49.872;6.190;2023-03-05T10:09:53;99598.23;;;6.83;56.18
63447;BME280;49577;49.872;6.190;2023-03-05T10:12:41;99594.52;;;6.83;55.35
63447;BME280;49577;49.872;6.190;2023-03-05T10:18:11;99592.16;;;6.57;53.79
63447;BME280;49577;49.872;6.190;2023-03-05T10:20:50;99588.72;;;6.45;53.42
63447;BME280;49577;49.872;6.190;2023-03-05T10:24:01;99586.02;;;6.36;53.38
63447;BME280;49577;49.872;6.190;2023-03-05T10:29:17;99583.79;;;6.35;53.64
63447;BME280;49577;49.872;6.190;2023-03-05T10:40:41;99564.70;;;7.43;51.45
63447;BME280;49577;49.872;6.190;2023-03-05T10:43:19;99561.25;;;7.69;50.77
63447;BME280;49577;49.872;6.190;2023-03-05T10:45:51;99553.77;;;7.93;50.40
63447;BME280;49577;49.872;6.190;2023-03-05T10:48:27;99553.45;;;8.16;49.76
63447;BME280;49577;49.872;6.190;2023-03-05T10:51:18;99552.25;;;8.31;48.98
63447;BME280;49577;49.872;6.190;2023-03-05T10:53:56;99546.76;;;8.37;48.15
63447;BME280;49577;49.872;6.190;2023-03-05T10:56:25;99542.16;;;8.34;48.12
63447;BME280;49577;49.872;6.190;2023-03-05T10:58:51;99543.51;;;8.36;47.80
63447;BME280;49577;49.872;6.190;2023-03-05T11:01:21;99537.27;;;8.35;47.58
63447;BME280;49577;49.872;6.190;2023-03-05T11:04:26;99532.20;;;8.36;47.28
63447;BME280;49577;49.872;6.190;2023-03-05T11:06:52;99529.67;;;8.37;47.44
63447;BME280;49577;49.872;6.190;2023-03-05T11:09:31;99524.85;;;8.43;47.15
63447;BME280;49577;49.872;6.190;2023-03-05T11:14:34;99518.89;;;8.44;46.49
63447;BME280;49577;49.872;6.190;2023-03-05T11:17:02;99518.02;;;8.41;46.73
63447;BME280;49577;49.872;6.190;2023-03-05T11:19:32;99511.26;;;8.33;46.51
63447;BME280;49577;49.872;6.190;2023-03-05T11:22:07;99507.79;;;8.26;46.22
63447;BME280;49577;49.872;6.190;2023-03-05T11:24:36;99506.23;;;8.20;46.31
63447;BME280;49577;49.872;6.190;2023-03-05T11:27:21;99505.90;;;8.20;46.37
63447;BME280;49577;49.872;6.190;2023-03-05T11:29:48;99503.58;;;8.24;46.12
63447;BME280;49577;49.872;6.190;2023-03-05T11:32:25;99501.92;;;8.23;45.88
63447;BME280;49577;49.872;6.190;2023-03-05T11:34:51;99501.41;;;8.22;46.02
63447;BME280;49577;49.872;6.190;2023-03-05T11:37:26;99500.39;;;8.19;46.31
63447;BME280;49577;49.872;6.190;2023-03-05T11:40:20;99500.30;;;8.14;46.48
63447;BME280;49577;49.872;6.190;2023-03-05T11:42:56;99502.52;;;8.02;45.92
63447;BME280;49577;49.872;6.190;2023-03-05T11:45:24;99500.54;;;7.94;46.12
63447;BME280;49577;49.872;6.190;2023-03-05T11:47:55;99498.36;;;7.89;46.26
63447;BME280;49577;49.872;6.190;2023-03-05T11:50:25;99495.40;;;7.82;46.57
63447;BME280;49577;49.872;6.190;2023-03-05T11:52:54;99496.35;;;7.77;46.62
63447;BME280;49577;49.872;6.190;2023-03-05T11:55:29;99490.14;;;7.63;46.40
63447;BME280;49577;49.872;6.190;2023-03-05T12:01:00;99477.80;;;7.33;46.82
63447;BME280;49577;49.872;6.190;2023-03-05T12:03:30;99476.23;;;7.20;46.91
63447;BME280;49577;49.872;6.190;2023-03-05T12:06:03;99474.37;;;7.08;47.28
63447;BME280;49577;49.872;6.190;2023-03-05T12:08:33;99467.92;;;7.02;47.64
63447;BME280;49577;49.872;6.190;2023-03-05T12:11:06;99465.92;;;6.97;48.00
63447;BME280;49577;49.872;6.190;2023-03-05T12:14:22;99463.67;;;6.90;48.18
63447;BME280;49577;49.872;6.190;2023-03-05T12:16:42;99455.67;;;6.87;48.54
63447;BME280;49577;49.872;6.190;2023-03-05T12:21:52;99449.26;;;6.79;49.00
63447;BME280;49577;49.872;6.190;2023-03-05T12:27:05;99435.30;;;6.73;49.22
63447;BME280;49577;49.872;6.190;2023-03-05T12:29:52;99433.90;;;6.70;49.04
63447;BME280;49577;49.872;6.190;2023-03-05T12:40:17;99422.33;;;6.66;49.63
63447;BME280;49577;49.872;6.190;2023-03-05T12:42:52;99412.02;;;6.67;49.63
63447;BME280;49577;49.872;6.190;2023-03-05T12:45:21;99408.66;;;6.72;49.49
63447;BME280;49577;49.872;6.190;2023-03-05T12:53:18;99394.50;;;7.08;49.29
63447;BME280;49577;49.872;6.190;2023-03-05T12:55:53;99391.27;;;7.16;49.08
63447;BME280;49577;49.872;6.190;2023-03-05T12:58:43;99384.48;;;7.20;48.93
63447;BME280;49577;49.872;6.190;2023-03-05T13:01:35;99381.13;;;7.21;48.87
63447;BME280;49577;49.872;6.190;2023-03-05T13:04:15;99378.43;;;7.23;49.08
63447;BME280;49577;49.872;6.190;2023-03-05T13:06:41;99370.06;;;7.27;48.79
63447;BME280;49577;49.872;6.190;2023-03-05T13:09:15;99366.88;;;7.28;48.44
63447;BME280;49577;49.872;6.190;2023-03-05T13:11:45;99360.81;;;7.27;48.39
63447;BME280;49577;49.872;6.190;2023-03-05T13:16:55;99354.23;;;7.24;48.72
63447;BME280;49577;49.872;6.190;2023-03-05T13:19:21;99357.05;;;7.20;48.59
63447;BME280;49577;49.872;6.190;2023-03-05T13:21:56;99354.01;;;7.15;48.66
63447;BME280;49577;49.872;6.190;2023-03-05T13:24:22;99351.44;;;7.14;48.78
63447;BME280;49577;49.872;6.190;2023-03-05T13:26:47;99349.30;;;7.12;48.69
63447;BME280;49577;49.872;6.190;2023-03-05T13:34:12;99339.77;;;7.02;48.66
63447;BME280;49577;49.872;6.190;2023-03-05T13:36:39;99337.69;;;6.95;48.84
63447;BME280;49577;49.872;6.190;2023-03-05T13:39:04;99331.14;;;6.91;49.08
63447;BME280;49577;49.872;6.190;2023-03-05T13:41:31;99330.23;;;6.84;49.36
63447;BME280;49577;49.872;6.190;2023-03-05T13:43:59;99327.39;;;6.79;49.52
63447;BME280;49577;49.872;6.190;2023-03-05T13:46:37;99317.08;;;6.77;49.85
63447;BME280;49577;49.872;6.190;2023-03-05T13:49:24;99311.41;;;6.79;49.73
63447;BME280;49577;49.872;6.190;2023-03-05T13:51:52;99308.20;;;6.77;49.75
63447;BME280;49577;49.872;6.190;2023-03-05T13:54:19;99306.23;;;6.76;49.82
63447;BME280;49577;49.872;6.190;2023-03-05T13:57:35;99303.07;;;6.76;49.90
63447;BME280;49577;49.872;6.190;2023-03-05T13:59:39;99297.59;;;6.81;49.95
63447;BME280;49577;49.872;6.190;2023-03-05T14:02:17;99293.96;;;6.88;50.00
63447;BME280;49577;49.872;6.190;2023-03-05T14:04:44;99291.59;;;6.94;49.75
63447;BME280;49577;49.872;6.190;2023-03-05T14:09:47;99285.69;;;7.03;50.02
63447;BME280;49577;49.872;6.190;2023-03-05T14:14:57;99276.92;;;7.08;49.63
63447;BME280;49577;49.872;6.190;2023-03-05T14:20:05;99272.15;;;7.10;50.02
63447;BME280;49577;49.872;6.190;2023-03-05T14:22:33;99267.80;;;7.03;49.95